sensor_id;sensor_type;location;lat;lon;timestamp;temperature;humidity
48264;DHT22;34086;51.076;13.722;2023-03-03T00:00:10;0.80;99.90
48264;DHT22;34086;51.076;13.722;2023-03-03T00:01:14;0.80;99.90
48264;DHT22;34086;51.076;13.722;2023-03-03T00:02:14;0.80;99.90
48264;DHT22;34086;51.076;13.722;2023-03-03T00:03:20;0.90;99.90
48264;DHT22;34086;51.076;13.722;2023-03-03T00:04:20;0.90;99.90
48264;DHT22;34086;51.076;13.722;2023-03-03T00:05:21;0.90;99.90
48264;DHT22;34086;51.076;13.722;2023-03-03T00:06:21;0.90;99.90
48264;DHT22;34086;51.076;13.722;2023-03-03T00:07:23;0.90;99.90
48264;DHT22;34086;51.076;13.722;2023-03-03T00:08:24;0.80;99.90
48264;DHT22;34086;51.076;13.722;2023-03-03T00:09:25;0.90;99.90
48264;DHT22;34086;51.076;13.722;2023-03-03T00:10:26;0.80;99.90
48264;DHT22;34086;51.076;13.722;2023-03-03T00:11:27;0.80;99.90
48264;DHT22;34086;51.076;13.722;2023-03-03T00:12:29;0.80;99.90
48264;DHT22;34086;51.076;13.722;2023-03-03T00:13:31;0.90;99.90
48264;DHT22;34086;51.076;13.722;2023-03-03T00:14:32;0.80;99.90
48264;DHT22;34086;51.076;13.722;2023-03-03T00:15:35;0.90;99.90
48264;DHT22;34086;51.076;13.722;2023-03-03T00:16:38;0.90;99.90
48264;DHT22;34086;51.076;13.722;2023-03-03T00:17:40;0.80;99.90
48264;DHT22;34086;51.076;13.722;2023-03-03T00:18:42;0.80;99.90
48264;DHT22;34086;51.076;13.722;2023-03-03T00:19:44;0.80;99.90
48264;DHT22;34086;51.076;13.722;2023-03-03T00:20:54;0.80;99.90
48264;DHT22;34086;51.076;13.722;2023-03-03T00:21:56;0.80;99.90
48264;DHT22;34086;51.076;13.722;2023-03-03T00:23:18;0.80;99.90
48264;DHT22;34086;51.076;13.722;2023-03-03T00:24:35;0.80;99.90
48264;DHT22;34086;51.076;13.722;2023-03-03T00:25:36;0.70;99.90
48264;DHT22;34086;51.076;13.722;2023-03-03T00:26:38;0.80;99.90
48264;DHT22;34086;51.076;13.722;2023-03-03T00:27:39;0.80;99.90
48264;DHT22;34086;51.076;13.722;2023-03-03T00:28:44;0.80;99.90
48264;DHT22;34086;51.076;13.722;2023-03-03T00:29:47;0.80;99.90
48264;DHT22;34086;51.076;13.722;2023-03-03T00:30:52;0.90;99.90
48264;DHT22;34086;51.076;13.722;2023-03-03T00:31:53;0.80;99.90
48264;DHT22;34086;51.076;13.722;2023-03-03T00:32:54;0.90;99.90
48264;DHT22;34086;51.076;13.722;2023-03-03T00:33:56;0.90;99.90
48264;DHT22;34086;51.076;13.722;2023-03-03T00:35:18;0.90;99.90
48264;DHT22;34086;51.076;13.722;2023-03-03T00:36:53;0.90;99.90
48264;DHT22;34086;51.076;13.722;2023-03-03T00:37:58;0.90;99.90
48264;DHT22;34086;51.076;13.722;2023-03-03T00:39:30;0.90;99.90
48264;DHT22;34086;51.076;13.722;2023-03-03T00:40:36;0.90;99.90
48264;DHT22;34086;51.076;13.722;2023-03-03T00:41:38;0.90;99.90
48264;DHT22;34086;51.076;13.722;2023-03-03T00:42:39;1.00;99.90
48264;DHT22;34086;51.076;13.722;2023-03-03T00:43:40;0.90;99.90
48264;DHT22;34086;51.076;13.722;2023-03-03T00:44:52;0.90;99.90
48264;DHT22;34086;51.076;13.722;2023-03-03T00:45:55;0.90;99.90
48264;DHT22;34086;51.076;13.722;2023-03-03T00:47:00;0.90;99.90
48264;DHT22;34086;51.076;13.722;2023-03-03T00:48:20;0.90;99.90
48264;DHT22;34086;51.076;13.722;2023-03-03T00:49:24;0.90;99.90
48264;DHT22;34086;51.076;13.722;2023-03-03T00:50:33;0.90;99.90
48264;DHT22;34086;51.076;13.722;2023-03-03T00:51:34;0.90;99.90
48264;DHT22;34086;51.076;13.722;2023-03-03T00:52:43;0.90;99.90
48264;DHT22;34086;51.076;13.722;2023-03-03T00:53:44;0.90;99.90
48264;DHT22;34086;51.076;13.722;2023-03-03T00:54:45;0.90;99.90
48264;DHT22;34086;51.076;13.722;2023-03-03T00:55:47;0.90;99.90
48264;DHT22;34086;51.076;13.722;2023-03-03T00:56:47;0.90;99.90
48264;DHT22;34086;51.076;13.722;2023-03-03T00:57:48;0.90;99.90
48264;DHT22;34086;51.076;13.722;2023-03-03T00:58:52;0.90;99.90
48264;DHT22;34086;51.076;13.722;2023-03-03T00:59:55;0.90;99.90
48264;DHT22;34086;51.076;13.722;2023-03-03T01:00:55;0.90;99.90
48264;DHT22;34086;51.076;13.722;2023-03-03T01:02:04;0.80;99.90
48264;DHT22;34086;51.076;13.722;2023-03-03T01:03:07;0.80;99.90
48264;DHT22;34086;51.076;13.722;2023-03-03T01:04:08;0.80;99.90
48264;DHT22;34086;51.076;13.722;2023-03-03T01:05:09;0.80;99.90
48264;DHT22;34086;51.076;13.722;2023-03-03T01:06:12;0.80;99.90
48264;DHT22;34086;51.076;13.722;2023-03-03T01:07:13;0.70;99.90
48264;DHT22;34086;51.076;13.722;2023-03-03T01:08:14;0.70;99.90
48264;DHT22;34086;51.076;13.722;2023-03-03T01:09:15;0.70;99.90
48264;DHT22;34086;51.076;13.722;2023-03-03T01:10:15;0.70;99.90
48264;DHT22;34086;51.076;13.722;2023-03-03T01:11:20;0.70;99.90
48264;DHT22;34086;51.076;13.722;2023-03-03T01:12:23;0.70;99.90
48264;DHT22;34086;51.076;13.722;2023-03-03T01:13:27;0.60;99.90
48264;DHT22;34086;51.076;13.722;2023-03-03T01:14:28;0.60;99.90
48264;DHT22;34086;51.076;13.722;2023-03-03T01:15:29;0.60;99.90
48264;DHT22;34086;51.076;13.722;2023-03-03T01:16:30;0.60;99.90
48264;DHT22;34086;51.076;13.722;2023-03-03T01:17:30;0.60;99.90
48264;DHT22;34086;51.076;13.722;2023-03-03T01:18:31;0.50;99.90
48264;DHT22;34086;51.076;13.722;2023-03-03T01:19:32;0.50;99.90
48264;DHT22;34086;51.076;13.722;2023-03-03T01:20:32;0.50;99.90
48264;DHT22;34086;51.076;13.722;2023-03-03T01:21:33;0.40;99.90
48264;DHT22;34086;51.076;13.722;2023-03-03T01:22:34;0.40;99.90
48264;DHT22;34086;51.076;13.722;2023-03-03T01:23:34;0.40;99.90
48264;DHT22;34086;51.076;13.722;2023-03-03T01:24:35;0.40;99.90
48264;DHT22;34086;51.076;13.722;2023-03-03T01:25:35;0.40;99.90
48264;DHT22;34086;51.076;13.722;2023-03-03T01:26:36;0.40;99.90
48264;DHT22;34086;51.076;13.722;2023-03-03T01:27:36;0.40;99.90
48264;DHT22;34086;51.076;13.722;2023-03-03T01:28:37;0.40;99.90
48264;DHT22;34086;51.076;13.722;2023-03-03T01:29:37;0.30;99.90
48264;DHT22;34086;51.076;13.722;2023-03-03T01:30:38;0.40;99.90
48264;DHT22;34086;51.076;13.722;2023-03-03T01:31:39;0.30;99.90
48264;DHT22;34086;51.076;13.722;2023-03-03T01:32:39;0.40;99.90
48264;DHT22;34086;51.076;13.722;2023-03-03T01:33:40;0.40;99.90
48264;DHT22;34086;51.076;13.722;2023-03-03T01:34:40;0.40;99.90
48264;DHT22;34086;51.076;13.722;2023-03-03T01:35:45;0.40;99.90
48264;DHT22;34086;51.076;13.722;2023-03-03T01:36:46;0.40;99.90
48264;DHT22;34086;51.076;13.722;2023-03-03T01:37:47;0.40;99.90
48264;DHT22;34086;51.076;13.722;2023-03-03T01:38:47;0.40;99.90
48264;DHT22;34086;51.076;13.722;2023-03-03T01:39:49;0.40;99.90
48264;DHT22;34086;51.076;13.722;2023-03-03T01:40:52;0.40;99.90
48264;DHT22;34086;51.076;13.722;2023-03-03T01:41:53;0.40;99.90
48264;DHT22;34086;51.076;13.722;2023-03-03T01:42:54;0.30;99.90
48264;DHT22;34086;51.076;13.722;2023-03-03T01:43:54;0.30;99.90
48264;DHT22;34086;51.076;13.722;2023-03-03T01:47:27;0.30;99.90
48264;DHT22;34086;51.076;13.722;2023-03-03T01:48:35;0.30;99.90
48264;DHT22;34086;51.076;13.722;2023-03-03T01:50:58;0.20;99.90
48264;DHT22;34086;51.076;13.722;2023-03-03T01:52:11;0.20;99.90
48264;DHT22;34086;51.076;13.722;2023-03-03T01:53:22;0.20;99.90
48264;DHT22;34086;51.076;13.722;2023-03-03T01:54:32;0.20;99.90
48264;DHT22;34086;51.076;13.722;2023-03-03T01:55:38;0.20;99.90
48264;DHT22;34086;51.076;13.722;2023-03-03T01:56:41;0.20;99.90
48264;DHT22;34086;51.076;13.722;2023-03-03T01:57:47;0.20;99.90
48264;DHT22;34086;51.076;13.722;2023-03-03T01:59:02;0.20;99.90
48264;DHT22;34086;51.076;13.722;2023-03-03T02:00:05;0.20;99.90
48264;DHT22;34086;51.076;13.722;2023-03-03T02:01:19;0.20;99.90
48264;DHT22;34086;51.076;13.722;2023-03-03T02:02:21;0.20;99.90
48264;DHT22;34086;51.076;13.722;2023-03-03T02:03:23;0.10;99.90
48264;DHT22;34086;51.076;13.722;2023-03-03T02:04:25;0.10;99.90
48264;DHT22;34086;51.076;13.722;2023-03-03T02:05:27;0.10;99.90
48264;DHT22;34086;51.076;13.722;2023-03-03T02:06:32;0.10;99.90
48264;DHT22;34086;51.076;13.722;2023-03-03T02:07:34;0.10;99.90
48264;DHT22;34086;51.076;13.722;2023-03-03T02:08:43;0.10;99.90
48264;DHT22;34086;51.076;13.722;2023-03-03T02:10:03;0.10;99.90
48264;DHT22;34086;51.076;13.722;2023-03-03T02:11:05;0.10;99.90
48264;DHT22;34086;51.076;13.722;2023-03-03T02:12:08;0.10;99.90
48264;DHT22;34086;51.076;13.722;2023-03-03T02:13:10;0.10;99.90
48264;DHT22;34086;51.076;13.722;2023-03-03T02:14:12;0.00;99.90
48264;DHT22;34086;51.076;13.722;2023-03-03T02:16:18;0.00;99.90
48264;DHT22;34086;51.076;13.722;2023-03-03T02:17:19;0.00;99.90
48264;DHT22;34086;51.076;13.722;2023-03-03T02:18:19;-0.10;99.90
48264;DHT22;34086;51.076;13.722;2023-03-03T02:19:40;-0.10;99.90
48264;DHT22;34086;51.076;13.722;2023-03-03T02:20:56;-0.10;99.90
48264;DHT22;34086;51.076;13.722;2023-03-03T02:22:00;-0.10;99.90
48264;DHT22;34086;51.076;13.722;2023-03-03T02:23:59;-0.10;99.90
48264;DHT22;34086;51.076;13.722;2023-03-03T02:25:05;-0.10;99.90
48264;DHT22;34086;51.076;13.722;2023-03-03T02:26:12;-0.10;99.90
48264;DHT22;34086;51.076;13.722;2023-03-03T02:27:14;0.00;99.90
48264;DHT22;34086;51.076;13.722;2023-03-03T02:28:17;0.00;99.90
48264;DHT22;34086;51.076;13.722;2023-03-03T02:29:17;0.00;99.90
48264;DHT22;34086;51.076;13.722;2023-03-03T02:30:20;0.00;99.90
48264;DHT22;34086;51.076;13.722;2023-03-03T02:31:26;-0.10;99.90
48264;DHT22;34086;51.076;13.722;2023-03-03T02:32:27;-0.10;99.90
48264;DHT22;34086;51.076;13.722;2023-03-03T02:33:28;-0.10;99.90
48264;DHT22;34086;51.076;13.722;2023-03-03T02:34:29;0.00;99.90
48264;DHT22;34086;51.076;13.722;2023-03-03T02:35:33;0.00;99.90
48264;DHT22;34086;51.076;13.722;2023-03-03T02:36:36;-0.10;99.90
48264;DHT22;34086;51.076;13.722;2023-03-03T02:37:37;-0.10;99.90
48264;DHT22;34086;51.076;13.722;2023-03-03T02:38:59;-0.20;99.90
48264;DHT22;34086;51.076;13.722;2023-03-03T02:40:02;-0.10;99.90
48264;DHT22;34086;51.076;13.722;2023-03-03T02:42:28;-0.10;99.90
48264;DHT22;34086;51.076;13.722;2023-03-03T02:43:38;-0.10;99.90
48264;DHT22;34086;51.076;13.722;2023-03-03T02:44:42;-0.10;99.90
48264;DHT22;34086;51.076;13.722;2023-03-03T02:45:44;-0.10;99.90
48264;DHT22;34086;51.076;13.722;2023-03-03T02:46:47;-0.10;99.90
48264;DHT22;34086;51.076;13.722;2023-03-03T02:47:49;-0.10;99.90
48264;DHT22;34086;51.076;13.722;2023-03-03T02:48:51;-0.10;99.90
48264;DHT22;34086;51.076;13.722;2023-03-03T02:49:52;-0.10;99.90
48264;DHT22;34086;51.076;13.722;2023-03-03T02:50:53;-0.10;99.90
48264;DHT22;34086;51.076;13.722;2023-03-03T02:51:54;-0.20;99.90
48264;DHT22;34086;51.076;13.722;2023-03-03T02:52:54;-0.20;99.90
48264;DHT22;34086;51.076;13.722;2023-03-03T02:53:56;-0.30;99.90
48264;DHT22;34086;51.076;13.722;2023-03-03T02:54:58;-0.30;99.90
48264;DHT22;34086;51.076;13.722;2023-03-03T02:55:59;-0.30;99.90
48264;DHT22;34086;51.076;13.722;2023-03-03T02:56:59;-0.20;99.90
48264;DHT22;34086;51.076;13.722;2023-03-03T02:58:00;-0.20;99.90
48264;DHT22;34086;51.076;13.722;2023-03-03T02:59:02;-0.20;99.90
48264;DHT22;34086;51.076;13.722;2023-03-03T03:00:05;-0.20;99.90
48264;DHT22;34086;51.076;13.722;2023-03-03T03:01:06;-0.20;99.90
48264;DHT22;34086;51.076;13.722;2023-03-03T03:02:08;-0.20;99.90
48264;DHT22;34086;51.076;13.722;2023-03-03T03:03:09;-0.20;99.90
48264;DHT22;34086;51.076;13.722;2023-03-03T03:04:17;-0.20;99.90
48264;DHT22;34086;51.076;13.722;2023-03-03T03:05:21;-0.20;99.90
48264;DHT22;34086;51.076;13.722;2023-03-03T03:06:22;-0.20;99.90
48264;DHT22;34086;51.076;13.722;2023-03-03T03:07:22;-0.20;99.90
48264;DHT22;34086;51.076;13.722;2023-03-03T03:08:23;-0.20;99.90
48264;DHT22;34086;51.076;13.722;2023-03-03T03:09:24;-0.20;99.90
48264;DHT22;34086;51.076;13.722;2023-03-03T03:10:26;-0.10;99.90
48264;DHT22;34086;51.076;13.722;2023-03-03T03:11:27;-0.20;99.90
48264;DHT22;34086;51.076;13.722;2023-03-03T03:12:27;-0.10;99.90
48264;DHT22;34086;51.076;13.722;2023-03-03T03:13:31;-0.20;99.90
48264;DHT22;34086;51.076;13.722;2023-03-03T03:14:32;-0.10;99.90
48264;DHT22;34086;51.076;13.722;2023-03-03T03:15:34;-0.10;99.90
48264;DHT22;34086;51.076;13.722;2023-03-03T03:16:35;-0.10;99.90
48264;DHT22;34086;51.076;13.722;2023-03-03T03:17:37;-0.20;99.90
48264;DHT22;34086;51.076;13.722;2023-03-03T03:18:39;-0.20;99.90
48264;DHT22;34086;51.076;13.722;2023-03-03T03:19:41;-0.30;99.90
48264;DHT22;34086;51.076;13.722;2023-03-03T03:20:42;-0.30;99.90
48264;DHT22;34086;51.076;13.722;2023-03-03T03:21:43;-0.30;99.90
48264;DHT22;34086;51.076;13.722;2023-03-03T03:22:44;-0.30;99.90
48264;DHT22;34086;51.076;13.722;2023-03-03T03:23:45;-0.30;99.90
48264;DHT22;34086;51.076;13.722;2023-03-03T03:24:46;-0.30;99.90
48264;DHT22;34086;51.076;13.722;2023-03-03T03:25:47;-0.20;99.90
48264;DHT22;34086;51.076;13.722;2023-03-03T03:26:56;-0.20;99.90
48264;DHT22;34086;51.076;13.722;2023-03-03T03:27:57;-0.30;99.90
48264;DHT22;34086;51.076;13.722;2023-03-03T03:28:58;-0.30;99.90
48264;DHT22;34086;51.076;13.722;2023-03-03T03:29:58;-0.30;99.90
48264;DHT22;34086;51.076;13.722;2023-03-03T03:31:00;-0.30;99.90
48264;DHT22;34086;51.076;13.722;2023-03-03T03:32:01;-0.30;99.90
48264;DHT22;34086;51.076;13.722;2023-03-03T03:33:01;-0.30;99.90
48264;DHT22;34086;51.076;13.722;2023-03-03T03:34:02;-0.30;99.90
48264;DHT22;34086;51.076;13.722;2023-03-03T03:35:04;-0.30;99.90
48264;DHT22;34086;51.076;13.722;2023-03-03T03:36:05;-0.30;99.90
48264;DHT22;34086;51.076;13.722;2023-03-03T03:37:05;-0.30;99.90
48264;DHT22;34086;51.076;13.722;2023-03-03T03:38:09;-0.30;99.90
48264;DHT22;34086;51.076;13.722;2023-03-03T03:39:10;-0.30;99.90
48264;DHT22;34086;51.076;13.722;2023-03-03T03:40:15;-0.30;99.90
48264;DHT22;34086;51.076;13.722;2023-03-03T03:41:15;-0.30;99.90
48264;DHT22;34086;51.076;13.722;2023-03-03T03:42:16;-0.30;99.90
48264;DHT22;34086;51.076;13.722;2023-03-03T03:43:17;-0.30;99.90
48264;DHT22;34086;51.076;13.722;2023-03-03T03:44:18;-0.30;99.90
48264;DHT22;34086;51.076;13.722;2023-03-03T03:45:19;-0.30;99.90
48264;DHT22;34086;51.076;13.722;2023-03-03T03:46:20;-0.30;99.90
48264;DHT22;34086;51.076;13.722;2023-03-03T03:47:21;-0.30;99.90
48264;DHT22;34086;51.076;13.722;2023-03-03T03:48:21;-0.30;99.90
48264;DHT22;34086;51.076;13.722;2023-03-03T03:49:23;-0.30;99.90
48264;DHT22;34086;51.076;13.722;2023-03-03T03:50:25;-0.30;99.90
48264;DHT22;34086;51.076;13.722;2023-03-03T03:51:26;-0.30;99.90
48264;DHT22;34086;51.076;13.722;2023-03-03T03:52:27;-0.30;99.90
48264;DHT22;34086;51.076;13.722;2023-03-03T03:53:27;-0.30;99.90
48264;DHT22;34086;51.076;13.722;2023-03-03T03:54:28;-0.30;99.90
48264;DHT22;34086;51.076;13.722;2023-03-03T03:55:28;-0.30;99.90
48264;DHT22;34086;51.076;13.722;2023-03-03T03:56:29;-0.30;99.90
48264;DHT22;34086;51.076;13.722;2023-03-03T03:57:32;-0.40;99.90
48264;DHT22;34086;51.076;13.722;2023-03-03T03:58:33;-0.40;99.90
48264;DHT22;34086;51.076;13.722;2023-03-03T03:59:37;-0.40;99.90
48264;DHT22;34086;51.076;13.722;2023-03-03T04:00:40;-0.40;99.90
48264;DHT22;34086;51.076;13.722;2023-03-03T04:01:41;-0.40;99.90
48264;DHT22;34086;51.076;13.722;2023-03-03T04:02:42;-0.30;99.90
48264;DHT22;34086;51.076;13.722;2023-03-03T04:03:46;-0.40;99.90
48264;DHT22;34086;51.076;13.722;2023-03-03T04:04:51;-0.40;99.90
48264;DHT22;34086;51.076;13.722;2023-03-03T04:05:52;-0.30;99.90
48264;DHT22;34086;51.076;13.722;2023-03-03T04:06:54;-0.30;99.90
48264;DHT22;34086;51.076;13.722;2023-03-03T04:07:55;-0.30;99.90
48264;DHT22;34086;51.076;13.722;2023-03-03T04:08:56;-0.30;99.90
48264;DHT22;34086;51.076;13.722;2023-03-03T04:09:57;-0.30;99.90
48264;DHT22;34086;51.076;13.722;2023-03-03T04:10:58;-0.30;99.90
48264;DHT22;34086;51.076;13.722;2023-03-03T04:12:00;-0.30;99.90
48264;DHT22;34086;51.076;13.722;2023-03-03T04:13:01;-0.30;99.90
48264;DHT22;34086;51.076;13.722;2023-03-03T04:14:01;-0.30;99.90
48264;DHT22;34086;51.076;13.722;2023-03-03T04:15:05;-0.40;99.90
48264;DHT22;34086;51.076;13.722;2023-03-03T04:16:06;-0.40;99.90
48264;DHT22;34086;51.076;13.722;2023-03-03T04:17:17;-0.40;99.90
48264;DHT22;34086;51.076;13.722;2023-03-03T04:18:18;-0.30;99.90
48264;DHT22;34086;51.076;13.722;2023-03-03T04:19:20;-0.30;99.90
48264;DHT22;34086;51.076;13.722;2023-03-03T04:20:23;-0.30;99.90
48264;DHT22;34086;51.076;13.722;2023-03-03T04:21:23;-0.30;99.90
48264;DHT22;34086;51.076;13.722;2023-03-03T04:22:26;-0.30;99.90
48264;DHT22;34086;51.076;13.722;2023-03-03T04:23:28;-0.30;99.90
48264;DHT22;34086;51.076;13.722;2023-03-03T04:24:28;-0.30;99.90
48264;DHT22;34086;51.076;13.722;2023-03-03T04:25:29;-0.40;99.90
48264;DHT22;34086;51.076;13.722;2023-03-03T04:26:30;-0.40;99.90
48264;DHT22;34086;51.076;13.722;2023-03-03T04:27:35;-0.40;99.90
48264;DHT22;34086;51.076;13.722;2023-03-03T04:28:36;-0.40;99.90
48264;DHT22;34086;51.076;13.722;2023-03-03T04:29:37;-0.40;99.90
48264;DHT22;34086;51.076;13.722;2023-03-03T04:30:37;-0.40;99.90
48264;DHT22;34086;51.076;13.722;2023-03-03T04:31:38;-0.40;99.90
48264;DHT22;34086;51.076;13.722;2023-03-03T04:32:42;-0.50;99.90
48264;DHT22;34086;51.076;13.722;2023-03-03T04:33:44;-0.40;99.90
48264;DHT22;34086;51.076;13.722;2023-03-03T04:34:45;-0.40;99.90
48264;DHT22;34086;51.076;13.722;2023-03-03T04:35:46;-0.40;99.90
48264;DHT22;34086;51.076;13.722;2023-03-03T04:36:46;-0.40;99.90
48264;DHT22;34086;51.076;13.722;2023-03-03T04:37:47;-0.40;99.90
48264;DHT22;34086;51.076;13.722;2023-03-03T04:38:49;-0.40;99.90
48264;DHT22;34086;51.076;13.722;2023-03-03T04:39:49;-0.30;99.90
48264;DHT22;34086;51.076;13.722;2023-03-03T04:40:50;-0.30;99.90
48264;DHT22;34086;51.076;13.722;2023-03-03T04:41:52;-0.30;99.90
48264;DHT22;34086;51.076;13.722;2023-03-03T04:42:53;-0.30;99.90
48264;DHT22;34086;51.076;13.722;2023-03-03T04:43:53;-0.30;99.90
48264;DHT22;34086;51.076;13.722;2023-03-03T04:44:54;-0.30;99.90
48264;DHT22;34086;51.076;13.722;2023-03-03T04:45:54;-0.30;99.90
48264;DHT22;34086;51.076;13.722;2023-03-03T04:46:56;-0.30;99.90
48264;DHT22;34086;51.076;13.722;2023-03-03T04:47:57;-0.30;99.90
48264;DHT22;34086;51.076;13.722;2023-03-03T04:48:57;-0.30;99.90
48264;DHT22;34086;51.076;13.722;2023-03-03T04:50:00;-0.30;99.90
48264;DHT22;34086;51.076;13.722;2023-03-03T04:51:03;-0.30;99.90
48264;DHT22;34086;51.076;13.722;2023-03-03T04:52:05;-0.30;99.90
48264;DHT22;34086;51.076;13.722;2023-03-03T04:53:05;-0.30;99.90
48264;DHT22;34086;51.076;13.722;2023-03-03T04:54:06;-0.30;99.90
48264;DHT22;34086;51.076;13.722;2023-03-03T04:55:07;-0.30;99.90
48264;DHT22;34086;51.076;13.722;2023-03-03T04:56:09;-0.30;99.90
48264;DHT22;34086;51.076;13.722;2023-03-03T04:57:10;-0.30;99.90
48264;DHT22;34086;51.076;13.722;2023-03-03T04:58:11;-0.30;99.90
48264;DHT22;34086;51.076;13.722;2023-03-03T04:59:12;-0.30;99.90
48264;DHT22;34086;51.076;13.722;2023-03-03T05:00:14;-0.30;99.90
48264;DHT22;34086;51.076;13.722;2023-03-03T05:01:15;-0.30;99.90
48264;DHT22;34086;51.076;13.722;2023-03-03T05:02:16;-0.30;99.90
48264;DHT22;34086;51.076;13.722;2023-03-03T05:03:16;-0.30;99.90
48264;DHT22;34086;51.076;13.722;2023-03-03T05:04:17;-0.20;99.90
48264;DHT22;34086;51.076;13.722;2023-03-03T05:05:18;-0.30;99.90
48264;DHT22;34086;51.076;13.722;2023-03-03T05:06:18;-0.30;99.90
48264;DHT22;34086;51.076;13.722;2023-03-03T05:07:19;-0.20;99.90
48264;DHT22;34086;51.076;13.722;2023-03-03T05:08:20;-0.30;99.90
48264;DHT22;34086;51.076;13.722;2023-03-03T05:09:20;-0.20;99.90
48264;DHT22;34086;51.076;13.722;2023-03-03T05:10:21;-0.20;99.90
48264;DHT22;34086;51.076;13.722;2023-03-03T05:11:21;-0.20;99.90
48264;DHT22;34086;51.076;13.722;2023-03-03T05:12:22;-0.20;99.90
48264;DHT22;34086;51.076;13.722;2023-03-03T05:13:22;-0.20;99.90
48264;DHT22;34086;51.076;13.722;2023-03-03T05:14:23;-0.20;99.90
48264;DHT22;34086;51.076;13.722;2023-03-03T05:15:23;-0.20;99.90
48264;DHT22;34086;51.076;13.722;2023-03-03T05:16:24;-0.20;99.90
48264;DHT22;34086;51.076;13.722;2023-03-03T05:17:25;-0.20;99.90
48264;DHT22;34086;51.076;13.722;2023-03-03T05:18:25;-0.20;99.90
48264;DHT22;34086;51.076;13.722;2023-03-03T05:19:27;-0.20;99.90
48264;DHT22;34086;51.076;13.722;2023-03-03T05:20:27;-0.20;99.90
48264;DHT22;34086;51.076;13.722;2023-03-03T05:21:28;-0.20;99.90
48264;DHT22;34086;51.076;13.722;2023-03-03T05:22:28;-0.20;99.90
48264;DHT22;34086;51.076;13.722;2023-03-03T05:23:29;-0.20;99.90
48264;DHT22;34086;51.076;13.722;2023-03-03T05:24:30;-0.20;99.90
48264;DHT22;34086;51.076;13.722;2023-03-03T05:25:31;-0.20;99.90
48264;DHT22;34086;51.076;13.722;2023-03-03T05:26:31;-0.20;99.90
48264;DHT22;34086;51.076;13.722;2023-03-03T05:27:32;-0.20;99.90
48264;DHT22;34086;51.076;13.722;2023-03-03T05:28:33;-0.20;99.90
48264;DHT22;34086;51.076;13.722;2023-03-03T05:29:33;-0.20;99.90
48264;DHT22;34086;51.076;13.722;2023-03-03T05:30:35;-0.20;99.90
48264;DHT22;34086;51.076;13.722;2023-03-03T05:31:35;-0.20;99.90
48264;DHT22;34086;51.076;13.722;2023-03-03T05:32:36;-0.20;99.90
48264;DHT22;34086;51.076;13.722;2023-03-03T05:33:37;-0.20;99.90
48264;DHT22;34086;51.076;13.722;2023-03-03T05:34:37;-0.20;99.90
48264;DHT22;34086;51.076;13.722;2023-03-03T05:35:38;-0.20;99.90
48264;DHT22;34086;51.076;13.722;2023-03-03T05:36:39;-0.10;99.90
48264;DHT22;34086;51.076;13.722;2023-03-03T05:37:40;-0.20;99.90
48264;DHT22;34086;51.076;13.722;2023-03-03T05:38:46;-0.10;99.90
48264;DHT22;34086;51.076;13.722;2023-03-03T05:39:46;-0.10;99.90
48264;DHT22;34086;51.076;13.722;2023-03-03T05:40:47;-0.10;99.90
48264;DHT22;34086;51.076;13.722;2023-03-03T05:41:48;-0.10;99.90
48264;DHT22;34086;51.076;13.722;2023-03-03T05:42:48;-0.10;99.90
48264;DHT22;34086;51.076;13.722;2023-03-03T05:43:49;-0.10;99.90
48264;DHT22;34086;51.076;13.722;2023-03-03T05:44:50;-0.10;99.90
48264;DHT22;34086;51.076;13.722;2023-03-03T05:45:54;0.00;99.90
48264;DHT22;34086;51.076;13.722;2023-03-03T05:46:55;0.00;99.90
48264;DHT22;34086;51.076;13.722;2023-03-03T05:47:57;0.00;99.90
48264;DHT22;34086;51.076;13.722;2023-03-03T05:48:57;0.00;99.90
48264;DHT22;34086;51.076;13.722;2023-03-03T05:49:58;0.00;99.90
48264;DHT22;34086;51.076;13.722;2023-03-03T05:51:00;0.00;99.90
48264;DHT22;34086;51.076;13.722;2023-03-03T05:52:01;0.00;99.90
48264;DHT22;34086;51.076;13.722;2023-03-03T05:53:02;0.00;99.90
48264;DHT22;34086;51.076;13.722;2023-03-03T05:54:02;0.00;99.90
48264;DHT22;34086;51.076;13.722;2023-03-03T05:55:03;0.00;99.90
48264;DHT22;34086;51.076;13.722;2023-03-03T05:56:04;0.00;99.90
48264;DHT22;34086;51.076;13.722;2023-03-03T05:57:05;0.00;99.90
48264;DHT22;34086;51.076;13.722;2023-03-03T05:58:05;0.00;99.90
48264;DHT22;34086;51.076;13.722;2023-03-03T05:59:06;0.00;99.90
48264;DHT22;34086;51.076;13.722;2023-03-03T06:00:07;0.00;99.90
48264;DHT22;34086;51.076;13.722;2023-03-03T06:01:16;0.00;99.90
48264;DHT22;34086;51.076;13.722;2023-03-03T06:02:17;0.00;99.90
48264;DHT22;34086;51.076;13.722;2023-03-03T06:03:17;0.00;99.90
48264;DHT22;34086;51.076;13.722;2023-03-03T06:04:18;0.00;99.90
48264;DHT22;34086;51.076;13.722;2023-03-03T06:05:18;0.00;99.90
48264;DHT22;34086;51.076;13.722;2023-03-03T06:06:19;0.00;99.90
48264;DHT22;34086;51.076;13.722;2023-03-03T06:07:20;0.00;99.90
48264;DHT22;34086;51.076;13.722;2023-03-03T06:08:20;0.00;99.90
48264;DHT22;34086;51.076;13.722;2023-03-03T06:09:21;0.00;99.90
48264;DHT22;34086;51.076;13.722;2023-03-03T06:10:21;0.00;99.90
48264;DHT22;34086;51.076;13.722;2023-03-03T06:11:26;0.00;99.90
48264;DHT22;34086;51.076;13.722;2023-03-03T06:12:26;-0.10;99.90
48264;DHT22;34086;51.076;13.722;2023-03-03T06:13:27;-0.10;99.90
48264;DHT22;34086;51.076;13.722;2023-03-03T06:14:27;0.00;99.90
48264;DHT22;34086;51.076;13.722;2023-03-03T06:15:28;0.00;99.90
48264;DHT22;34086;51.076;13.722;2023-03-03T06:16:29;0.00;99.90
48264;DHT22;34086;51.076;13.722;2023-03-03T06:17:29;0.00;99.90
48264;DHT22;34086;51.076;13.722;2023-03-03T06:18:30;0.00;99.90
48264;DHT22;34086;51.076;13.722;2023-03-03T06:19:31;0.00;99.90
48264;DHT22;34086;51.076;13.722;2023-03-03T06:20:31;0.00;99.90
48264;DHT22;34086;51.076;13.722;2023-03-03T06:21:32;0.00;99.90
48264;DHT22;34086;51.076;13.722;2023-03-03T06:22:33;0.00;99.90
48264;DHT22;34086;51.076;13.722;2023-03-03T06:23:33;0.10;99.90
48264;DHT22;34086;51.076;13.722;2023-03-03T06:24:34;0.10;99.90
48264;DHT22;34086;51.076;13.722;2023-03-03T06:25:35;0.10;99.90
48264;DHT22;34086;51.076;13.722;2023-03-03T06:26:35;0.10;99.90
48264;DHT22;34086;51.076;13.722;2023-03-03T06:27:36;0.10;99.90
48264;DHT22;34086;51.076;13.722;2023-03-03T06:28:36;0.10;99.90
48264;DHT22;34086;51.076;13.722;2023-03-03T06:29:37;0.10;99.90
48264;DHT22;34086;51.076;13.722;2023-03-03T06:30:38;0.10;99.90
48264;DHT22;34086;51.076;13.722;2023-03-03T06:31:38;0.10;99.90
48264;DHT22;34086;51.076;13.722;2023-03-03T06:32:39;0.10;99.90
48264;DHT22;34086;51.076;13.722;2023-03-03T06:33:39;0.10;99.90
48264;DHT22;34086;51.076;13.722;2023-03-03T06:34:41;0.10;99.90
48264;DHT22;34086;51.076;13.722;2023-03-03T06:35:42;0.10;99.90
48264;DHT22;34086;51.076;13.722;2023-03-03T06:36:43;0.10;99.90
48264;DHT22;34086;51.076;13.722;2023-03-03T06:37:44;0.00;99.90